• Join FlightAware (Why Join?)
  • Login
  • US Flag 
10:48PM EDT


 

Airport Tracker/Info


-or-


 

Live Flight TrackerFlight Track Log ✈ AWE1940 ✈ 30-Apr-2013 ✈ KCLT - KALB

Flight Track Log - Related Links

Times and Time Zones

All times are in EDT time to prevent confusion due to time zone crossing. See the AWE1940 flight status page for this flight to view local times or setup timezone preferences in your user account.

Time Position Orientation Groundspeed Altitude Reporting Facility
EDT Latitude Longitude Course Direction KTS MPH feet Rate Location/Type
01:01AM 35.1431 -80.9425 34° Northeast 234 269 5,500  Level Atlanta Center
01:02AM 35.1764 -80.8600 64° Northeast 217 250 7,800 2,400 Climbing Atlanta Center
01:03AM 35.2244 -80.7819 53° Northeast 237 273 10,400 1,800 Climbing Atlanta Center
01:04AM 35.2864 -80.6853 52° Northeast 302 348 11,400 1,500 Climbing Atlanta Center
01:05AM 35.3544 -80.5781 52° Northeast 364 419 13,500 2,040 Climbing Atlanta Center
01:06AM 35.6820 -80.5567 34° Northeast  Level Estimated
01:07AM 35.7599 -80.4909 34° Northeast  Level Estimated
01:08AM 35.5203 -80.3158 52° Northeast 428 493 18,300  Level Washington Center
01:09AM 35.5958 -80.1950 52° Northeast 428 493 19,900 1,560 Climbing Washington Center
01:10AM 35.6694 -80.0739 53° Northeast 434 499 21,500 1,320 Climbing Washington Center
01:11AM 35.7403 -79.9653 51° Northeast 439 505 22,700 1,140 Climbing Washington Center
01:12AM 35.8219 -79.8392 51° Northeast 452 520 23,800 1,140 Climbing Washington Center
01:13AM 35.9106 -79.6953 53° Northeast 477 549 25,000 1,020 Climbing Washington Center
01:14AM 35.9922 -79.5633 53° Northeast 486 559 25,900 900 Climbing Washington Center
01:15AM 36.0650 -79.4411 54° Northeast 486 559 26,900 1,080 Climbing Washington Center
01:16AM 36.1572 -79.2992 51° Northeast 486 559 28,200 1,260 Climbing Washington Center
01:17AM 36.2361 -79.1664 54° Northeast 486 559 29,500 1,320 Climbing Washington Center
01:18AM 36.3172 -79.0361 52° Northeast 486 559 30,900 1,260 Climbing Washington Center
01:19AM 36.3961 -78.9053 53° Northeast 476 548 32,000 1,320 Climbing Washington Center
01:20AM 36.4769 -78.7744 52° Northeast 476 548 33,600 1,380 Climbing Washington Center
01:21AM 36.5533 -78.6456 54° Northeast 471 542 34,800 1,080 Climbing Washington Center
01:22AM 36.6294 -78.5167 54° Northeast 471 542 35,800 960 Climbing Washington Center
01:23AM 36.7036 -78.3847 55° Northeast 471 542 36,800 540 Climbing Washington Center
01:24AM 36.7836 -78.2553 52° Northeast 466 536 37,000 60 Climbing Washington Center
01:25AM 36.8639 -78.1206 53° Northeast 471 542 37,000  Level Washington Center
01:26AM 36.9439 -77.9828 54° Northeast 476 548 37,000  Level Washington Center
01:27AM 37.0217 -77.8472 54° Northeast 476 548 37,000  Level Washington Center
01:28AM 37.1011 -77.7142 53° Northeast 476 548 37,000  Level Washington Center
01:29AM 37.1764 -77.5858 54° Northeast 469 540 37,000  Level Washington Center
01:30AM 37.2386 -77.4781 54° Northeast 469 540 37,000  Level Washington Center
01:31AM 37.3319 -77.3681 43° Northeast 469 540 37,000  Level Washington Center
01:32AM 37.4567 -77.2531 36° Northeast 456 525 37,000  Level Washington Center
01:33AM 37.5625 -77.1533 37° Northeast 461 531 37,000  Level Washington Center
01:34AM 37.6658 -77.0506 38° Northeast 466 536 37,000 -480 Level Washington Center
01:35AM 37.7672 -76.9500 38° Northeast 466 536 36,100 -960 Descending Washington Center
01:36AM 37.8725 -76.8492 37° Northeast 466 536 35,100 -600 Descending Washington Center
01:37AM 37.9736 -76.7481 38° Northeast 466 536 35,000 -60 Descending Washington Center
01:38AM 38.0789 -76.6469 37° Northeast 466 536 35,000  Level Washington Center
01:39AM 38.1819 -76.5453 38° Northeast 466 536 35,000  Level Washington Center
01:40AM 38.2828 -76.4461 38° Northeast 466 536 35,000  Level Washington Center
01:41AM 38.3750 -76.3572 37° Northeast 461 531 35,000  Level Washington Center
01:42AM 38.4778 -76.2519 39° Northeast 466 536 35,000  Level Washington Center
01:43AM 38.5847 -76.1494 37° Northeast 474 545 35,000  Level Washington Center
01:44AM 38.6872 -76.0464 38° Northeast 469 540 35,000  Level Washington Center
01:45AM 38.7919 -75.9458 37° Northeast 469 540 35,000  Level Washington Center
01:46AM 38.8942 -75.8397 39° Northeast 469 540 35,000  Level Washington Center
01:47AM 38.9967 -75.7386 37° Northeast 469 540 35,000  Level Washington Center
01:48AM 39.0989 -75.6344 38° Northeast 469 540 35,000  Level Washington Center
01:49AM 39.2008 -75.5300 38° Northeast 469 540 35,000  Level Washington Center
01:50AM 39.2842 -75.4467 38° Northeast 469 540 35,000 -60 Level Washington Center
01:52AM 39.5669 -75.1578 38° Northeast 466 536 34,900  Descending New York Center
01:53AM 39.6744 -75.0728 31° Northeast 460 529 35,000  Climbing New York Center
01:54AM 39.7911 -75.0206 19° North 449 517 35,000  Level New York Center
01:55AM 39.9139 -74.9658 19° North 449 517 35,000  Level New York Center
01:56AM 40.0514 -74.9089 18° North 463 533 35,000  Level New York Center
01:57AM 40.1697 -74.8589 18° North 463 533 35,000 -180 Level New York Center
01:58AM 40.2906 -74.8064 18° North 446 513 34,700 -900 Descending New York Center
01:59AM 40.4089 -74.7561 18° North 446 513 33,300 -1,380 Descending New York Center
02:00AM 40.5292 -74.7083 10° North 446 513 32,000 -1,320 Descending New York Center
02:01AM 40.5378 -74.7267 10° North  Level FlightAware Approximate
02:01AM 40.6436 -74.6519 20° North 446 513 30,700  Level New York Center
02:02AM 40.7619 -74.6011 18° North 446 513 29,300 -1,380 Descending New York Center
02:03AM 40.8761 -74.5500 19° North 441 507 27,900 -1,260 Descending New York Center
02:06AM 41.0786 -74.5171 North  Level FlightAware Approximate
02:07AM 41.2583 -74.3867 North 439 505 24,000  Level Boston Center
02:08AM 41.3758 -74.3322 19° North 445 512 24,000 -900 Level Boston Center
02:09AM 41.4997 -74.2750 19° North 451 519 22,300 -2,640 Descending Boston Center
02:10AM 41.6214 -74.2228 18° North 451 519 18,800 -3,000 Descending Boston Center
02:11AM 41.7222 -74.1786 18° North 419 482 16,300 -2,400 Descending Boston Center
02:11AM 41.8103 -74.1392 18° North 411 473 14,600 -2,040 Descending Boston Center
02:12AM 41.8397 -74.1231 22° Northeast 406 467 14,300 -1,500 Descending Boston Center
02:13AM 41.9258 -74.0864 18° North 398 458 13,000 -1,500 Descending Boston Center
02:14AM 42.0203 -74.0414 19° North 341 392 11,600 -1,020 Descending Boston Center
02:15AM 42.1042 -74.0072 17° North 307 353 11,000 -600 Descending Boston Center
02:16AM 42.1794 -73.9725 19° North 254 292 10,500 -900 Descending Boston Center
02:17AM 42.2467 -73.9378 21° North 253 291 9,200 -1,380 Descending Boston Center
02:18AM 42.3158 -73.9086 17° North 257 296 7,800 -1,440 Descending Boston Center
02:19AM 42.3850 -73.8792 17° North 257 296 6,400 -1,740 Descending Boston Center
02:20AM 42.4500 -73.8497 18° North 251 289 4,300 -1,740 Descending Boston Center
02:21AM 42.5150 -73.8175 20° North 253 291 2,900 -900 Descending Boston Center
02:22AM 42.5714 -73.7989 14° North 206 237 2,600 -180 Descending Boston Center
02:23AM 42.6256 -73.8003 359° North 168 193 2,600 -480 Level Boston Center
02:24AM 42.6694 -73.8039 357° North 154 177 1,700 -840 Descending Boston Center
02:25AM 42.7111 -73.8078 356° North 151 174 900 10,920 Descending Boston Center
02:26AM 42.7822 -73.7808 16° North 188 216 24,000 22,680 Climbing Boston Center